sensor_id;sensor_type;location;lat;lon;timestamp;P1;durP1;ratioP1;P2;durP2;ratioP2
17650;SDS011;26663;59.302;18.082;2023-04-05T00:00:52;1.30;;;1.30;;
17650;SDS011;26663;59.302;18.082;2023-04-05T00:03:58;1.40;;;1.40;;
17650;SDS011;26663;59.302;18.082;2023-04-05T00:07:04;1.40;;;1.40;;
17650;SDS011;26663;59.302;18.082;2023-04-05T00:10:12;3.70;;;1.33;;
17650;SDS011;26663;59.302;18.082;2023-04-05T00:13:18;1.33;;;1.30;;
17650;SDS011;26663;59.302;18.082;2023-04-05T00:16:25;1.67;;;1.43;;
17650;SDS011;26663;59.302;18.082;2023-04-05T00:19:31;2.20;;;1.50;;
17650;SDS011;26663;59.302;18.082;2023-04-05T00:22:39;2.30;;;1.47;;
17650;SDS011;26663;59.302;18.082;2023-04-05T00:25:47;3.60;;;1.20;;
17650;SDS011;26663;59.302;18.082;2023-04-05T00:28:53;1.53;;;1.40;;
17650;SDS011;26663;59.302;18.082;2023-04-05T00:31:59;2.30;;;1.40;;
17650;SDS011;26663;59.302;18.082;2023-04-05T00:35:04;1.27;;;1.20;;
17650;SDS011;26663;59.302;18.082;2023-04-05T00:38:10;1.30;;;1.30;;
17650;SDS011;26663;59.302;18.082;2023-04-05T00:41:17;1.27;;;1.27;;
17650;SDS011;26663;59.302;18.082;2023-04-05T00:44:22;1.13;;;1.13;;
17650;SDS011;26663;59.302;18.082;2023-04-05T00:47:28;1.50;;;1.40;;
17650;SDS011;26663;59.302;18.082;2023-04-05T00:50:33;1.50;;;1.40;;
17650;SDS011;26663;59.302;18.082;2023-04-05T00:53:38;0.97;;;0.97;;
17650;SDS011;26663;59.302;18.082;2023-04-05T00:56:46;1.60;;;1.60;;
17650;SDS011;26663;59.302;18.082;2023-04-05T00:59:54;1.10;;;1.10;;
17650;SDS011;26663;59.302;18.082;2023-04-05T01:03:02;4.67;;;1.13;;
17650;SDS011;26663;59.302;18.082;2023-04-05T01:06:15;1.30;;;1.30;;
17650;SDS011;26663;59.302;18.082;2023-04-05T01:09:28;2.50;;;1.63;;
17650;SDS011;26663;59.302;18.082;2023-04-05T01:12:40;1.10;;;1.10;;
17650;SDS011;26663;59.302;18.082;2023-04-05T01:15:46;5.50;;;1.40;;
17650;SDS011;26663;59.302;18.082;2023-04-05T01:18:51;1.20;;;1.10;;
17650;SDS011;26663;59.302;18.082;2023-04-05T01:25:44;1.20;;;1.20;;
17650;SDS011;26663;59.302;18.082;2023-04-05T01:32:53;1.17;;;1.10;;
17650;SDS011;26663;59.302;18.082;2023-04-05T01:36:03;1.33;;;1.30;;
17650;SDS011;26663;59.302;18.082;2023-04-05T01:39:14;3.47;;;1.33;;
17650;SDS011;26663;59.302;18.082;2023-04-05T01:42:24;4.43;;;1.50;;
17650;SDS011;26663;59.302;18.082;2023-04-05T01:45:31;2.03;;;1.30;;
17650;SDS011;26663;59.302;18.082;2023-04-05T01:48:36;1.40;;;1.40;;
17650;SDS011;26663;59.302;18.082;2023-04-05T01:51:41;2.00;;;1.27;;
17650;SDS011;26663;59.302;18.082;2023-04-05T01:54:46;1.53;;;1.43;;
17650;SDS011;26663;59.302;18.082;2023-04-05T01:57:53;4.27;;;1.43;;
17650;SDS011;26663;59.302;18.082;2023-04-05T02:01:00;1.30;;;1.30;;
17650;SDS011;26663;59.302;18.082;2023-04-05T02:04:05;1.53;;;1.30;;
17650;SDS011;26663;59.302;18.082;2023-04-05T02:07:12;1.47;;;1.40;;
17650;SDS011;26663;59.302;18.082;2023-04-05T02:10:18;2.50;;;1.40;;
17650;SDS011;26663;59.302;18.082;2023-04-05T02:13:25;1.40;;;1.30;;
17650;SDS011;26663;59.302;18.082;2023-04-05T02:16:33;1.43;;;1.20;;
17650;SDS011;26663;59.302;18.082;2023-04-05T02:19:39;1.33;;;1.30;;
17650;SDS011;26663;59.302;18.082;2023-04-05T02:22:48;1.60;;;1.30;;
17650;SDS011;26663;59.302;18.082;2023-04-05T02:25:53;1.37;;;1.27;;
17650;SDS011;26663;59.302;18.082;2023-04-05T02:28:58;1.07;;;1.03;;
17650;SDS011;26663;59.302;18.082;2023-04-05T02:32:05;2.67;;;1.30;;
17650;SDS011;26663;59.302;18.082;2023-04-05T02:35:10;1.20;;;1.20;;
17650;SDS011;26663;59.302;18.082;2023-04-05T02:38:18;1.20;;;1.20;;
17650;SDS011;26663;59.302;18.082;2023-04-05T02:41:24;1.97;;;1.33;;
17650;SDS011;26663;59.302;18.082;2023-04-05T02:44:29;2.00;;;1.60;;
17650;SDS011;26663;59.302;18.082;2023-04-05T02:47:36;3.10;;;1.40;;
17650;SDS011;26663;59.302;18.082;2023-04-05T02:50:45;1.53;;;1.50;;
17650;SDS011;26663;59.302;18.082;2023-04-05T02:53:52;5.13;;;1.60;;
17650;SDS011;26663;59.302;18.082;2023-04-05T02:56:57;1.10;;;1.10;;
17650;SDS011;26663;59.302;18.082;2023-04-05T03:00:11;2.53;;;1.30;;
17650;SDS011;26663;59.302;18.082;2023-04-05T03:03:19;2.97;;;1.30;;
17650;SDS011;26663;59.302;18.082;2023-04-05T03:06:25;1.23;;;1.23;;
17650;SDS011;26663;59.302;18.082;2023-04-05T03:09:30;3.93;;;1.50;;
17650;SDS011;26663;59.302;18.082;2023-04-05T03:12:40;1.93;;;1.40;;
17650;SDS011;26663;59.302;18.082;2023-04-05T03:15:47;1.60;;;1.23;;
17650;SDS011;26663;59.302;18.082;2023-04-05T03:18:54;4.90;;;1.40;;
17650;SDS011;26663;59.302;18.082;2023-04-05T03:22:00;3.10;;;1.20;;
17650;SDS011;26663;59.302;18.082;2023-04-05T03:25:09;1.00;;;1.00;;
17650;SDS011;26663;59.302;18.082;2023-04-05T03:28:20;2.37;;;1.40;;
17650;SDS011;26663;59.302;18.082;2023-04-05T03:31:30;1.27;;;1.20;;
17650;SDS011;26663;59.302;18.082;2023-04-05T03:34:41;2.00;;;1.80;;
17650;SDS011;26663;59.302;18.082;2023-04-05T03:37:49;4.80;;;1.90;;
17650;SDS011;26663;59.302;18.082;2023-04-05T03:40:54;1.60;;;1.20;;
17650;SDS011;26663;59.302;18.082;2023-04-05T03:43:59;2.47;;;1.90;;
17650;SDS011;26663;59.302;18.082;2023-04-05T03:47:05;2.03;;;1.30;;
17650;SDS011;26663;59.302;18.082;2023-04-05T03:50:14;1.50;;;1.40;;
17650;SDS011;26663;59.302;18.082;2023-04-05T03:53:19;1.47;;;1.20;;
17650;SDS011;26663;59.302;18.082;2023-04-05T03:56:29;1.57;;;1.47;;
17650;SDS011;26663;59.302;18.082;2023-04-05T03:59:44;1.60;;;1.40;;
17650;SDS011;26663;59.302;18.082;2023-04-05T04:02:52;1.83;;;1.73;;
17650;SDS011;26663;59.302;18.082;2023-04-05T04:05:59;1.37;;;1.37;;
17650;SDS011;26663;59.302;18.082;2023-04-05T04:09:04;4.37;;;1.63;;
17650;SDS011;26663;59.302;18.082;2023-04-05T04:12:10;1.60;;;1.60;;
17650;SDS011;26663;59.302;18.082;2023-04-05T04:15:25;1.50;;;1.40;;
17650;SDS011;26663;59.302;18.082;2023-04-05T04:18:50;2.00;;;1.50;;
17650;SDS011;26663;59.302;18.082;2023-04-05T04:22:12;1.60;;;1.60;;
17650;SDS011;26663;59.302;18.082;2023-04-05T04:25:49;1.27;;;1.27;;
17650;SDS011;26663;59.302;18.082;2023-04-05T04:29:14;6.13;;;1.50;;
17650;SDS011;26663;59.302;18.082;2023-04-05T04:32:33;1.97;;;1.80;;
17650;SDS011;26663;59.302;18.082;2023-04-05T04:36:25;2.60;;;1.50;;
17650;SDS011;26663;59.302;18.082;2023-04-05T04:39:59;2.73;;;1.80;;
17650;SDS011;26663;59.302;18.082;2023-04-05T04:43:29;1.73;;;1.53;;
17650;SDS011;26663;59.302;18.082;2023-04-05T04:46:51;1.50;;;1.50;;
17650;SDS011;26663;59.302;18.082;2023-04-05T04:50:20;1.33;;;1.33;;
17650;SDS011;26663;59.302;18.082;2023-04-05T04:53:25;1.40;;;1.40;;
17650;SDS011;26663;59.302;18.082;2023-04-05T04:56:32;1.97;;;1.53;;
17650;SDS011;26663;59.302;18.082;2023-04-05T04:59:37;4.60;;;1.70;;
17650;SDS011;26663;59.302;18.082;2023-04-05T05:02:43;2.33;;;1.60;;
17650;SDS011;26663;59.302;18.082;2023-04-05T05:05:50;3.93;;;1.83;;
17650;SDS011;26663;59.302;18.082;2023-04-05T05:09:00;2.67;;;1.70;;
17650;SDS011;26663;59.302;18.082;2023-04-05T05:12:12;3.93;;;1.73;;
17650;SDS011;26663;59.302;18.082;2023-04-05T05:15:17;2.30;;;1.50;;
17650;SDS011;26663;59.302;18.082;2023-04-05T05:18:23;2.17;;;1.60;;
17650;SDS011;26663;59.302;18.082;2023-04-05T05:21:28;1.77;;;1.77;;
17650;SDS011;26663;59.302;18.082;2023-04-05T05:24:36;2.00;;;1.70;;
17650;SDS011;26663;59.302;18.082;2023-04-05T05:27:42;2.40;;;1.60;;
17650;SDS011;26663;59.302;18.082;2023-04-05T05:30:47;2.73;;;1.73;;
17650;SDS011;26663;59.302;18.082;2023-04-05T05:33:53;1.60;;;1.60;;
17650;SDS011;26663;59.302;18.082;2023-04-05T05:36:58;2.70;;;1.83;;
17650;SDS011;26663;59.302;18.082;2023-04-05T05:40:03;1.70;;;1.60;;
17650;SDS011;26663;59.302;18.082;2023-04-05T05:43:10;1.90;;;1.50;;
17650;SDS011;26663;59.302;18.082;2023-04-05T05:46:17;3.27;;;1.60;;
17650;SDS011;26663;59.302;18.082;2023-04-05T05:49:23;2.60;;;1.50;;
17650;SDS011;26663;59.302;18.082;2023-04-05T05:52:28;2.77;;;1.47;;
17650;SDS011;26663;59.302;18.082;2023-04-05T05:55:33;2.73;;;1.60;;
17650;SDS011;26663;59.302;18.082;2023-04-05T05:58:41;2.40;;;1.50;;
17650;SDS011;26663;59.302;18.082;2023-04-05T06:01:46;3.70;;;1.57;;
17650;SDS011;26663;59.302;18.082;2023-04-05T06:04:52;4.43;;;1.60;;
17650;SDS011;26663;59.302;18.082;2023-04-05T06:07:59;1.30;;;1.30;;
17650;SDS011;26663;59.302;18.082;2023-04-05T06:11:05;1.60;;;1.50;;
17650;SDS011;26663;59.302;18.082;2023-04-05T06:14:12;1.33;;;1.33;;
17650;SDS011;26663;59.302;18.082;2023-04-05T06:17:17;4.87;;;1.77;;
17650;SDS011;26663;59.302;18.082;2023-04-05T06:20:22;7.20;;;1.40;;
17650;SDS011;26663;59.302;18.082;2023-04-05T06:23:30;2.50;;;1.47;;
17650;SDS011;26663;59.302;18.082;2023-04-05T06:26:35;3.20;;;1.60;;
17650;SDS011;26663;59.302;18.082;2023-04-05T06:29:42;1.70;;;1.60;;
17650;SDS011;26663;59.302;18.082;2023-04-05T06:32:47;1.70;;;1.60;;
17650;SDS011;26663;59.302;18.082;2023-04-05T06:35:56;1.63;;;1.53;;
17650;SDS011;26663;59.302;18.082;2023-04-05T06:39:01;1.93;;;1.57;;
17650;SDS011;26663;59.302;18.082;2023-04-05T06:42:06;1.93;;;1.67;;
17650;SDS011;26663;59.302;18.082;2023-04-05T06:45:20;1.83;;;1.60;;
17650;SDS011;26663;59.302;18.082;2023-04-05T06:48:25;4.40;;;1.80;;
17650;SDS011;26663;59.302;18.082;2023-04-05T06:51:31;2.63;;;1.40;;
17650;SDS011;26663;59.302;18.082;2023-04-05T06:54:36;5.40;;;1.63;;
17650;SDS011;26663;59.302;18.082;2023-04-05T06:57:42;2.03;;;1.50;;
17650;SDS011;26663;59.302;18.082;2023-04-05T07:00:48;4.60;;;1.53;;
17650;SDS011;26663;59.302;18.082;2023-04-05T07:03:54;4.37;;;1.60;;
17650;SDS011;26663;59.302;18.082;2023-04-05T07:06:59;4.60;;;1.47;;
17650;SDS011;26663;59.302;18.082;2023-04-05T07:10:05;3.90;;;1.60;;
17650;SDS011;26663;59.302;18.082;2023-04-05T07:13:11;1.43;;;1.33;;
17650;SDS011;26663;59.302;18.082;2023-04-05T07:16:18;4.67;;;1.77;;
17650;SDS011;26663;59.302;18.082;2023-04-05T07:19:25;1.80;;;1.70;;
17650;SDS011;26663;59.302;18.082;2023-04-05T07:22:31;3.67;;;1.60;;
17650;SDS011;26663;59.302;18.082;2023-04-05T07:25:38;1.30;;;1.30;;
17650;SDS011;26663;59.302;18.082;2023-04-05T07:28:43;3.40;;;1.53;;
17650;SDS011;26663;59.302;18.082;2023-04-05T07:31:50;1.50;;;1.40;;
17650;SDS011;26663;59.302;18.082;2023-04-05T07:34:55;1.60;;;1.47;;
17650;SDS011;26663;59.302;18.082;2023-04-05T07:38:00;1.70;;;1.50;;
17650;SDS011;26663;59.302;18.082;2023-04-05T07:41:08;1.53;;;1.13;;
17650;SDS011;26663;59.302;18.082;2023-04-05T07:44:14;2.40;;;1.80;;
17650;SDS011;26663;59.302;18.082;2023-04-05T07:47:20;1.70;;;1.60;;
17650;SDS011;26663;59.302;18.082;2023-04-05T07:50:25;2.10;;;1.30;;
17650;SDS011;26663;59.302;18.082;2023-04-05T07:53:30;1.83;;;1.73;;
17650;SDS011;26663;59.302;18.082;2023-04-05T07:56:36;3.23;;;1.67;;
17650;SDS011;26663;59.302;18.082;2023-04-05T07:59:41;1.70;;;1.43;;
17650;SDS011;26663;59.302;18.082;2023-04-05T08:02:48;2.63;;;1.40;;
17650;SDS011;26663;59.302;18.082;2023-04-05T08:05:53;1.63;;;1.53;;
17650;SDS011;26663;59.302;18.082;2023-04-05T08:08:59;4.67;;;1.60;;
17650;SDS011;26663;59.302;18.082;2023-04-05T08:12:09;1.40;;;1.40;;
17650;SDS011;26663;59.302;18.082;2023-04-05T08:15:15;2.37;;;1.40;;
17650;SDS011;26663;59.302;18.082;2023-04-05T08:18:21;5.37;;;1.40;;
17650;SDS011;26663;59.302;18.082;2023-04-05T08:21:28;7.90;;;2.00;;
17650;SDS011;26663;59.302;18.082;2023-04-05T08:24:33;1.60;;;1.50;;
17650;SDS011;26663;59.302;18.082;2023-04-05T08:27:38;1.43;;;1.40;;
17650;SDS011;26663;59.302;18.082;2023-04-05T08:30:43;11.20;;;2.23;;
17650;SDS011;26663;59.302;18.082;2023-04-05T08:33:50;13.23;;;7.07;;
17650;SDS011;26663;59.302;18.082;2023-04-05T08:36:56;2.53;;;2.33;;
17650;SDS011;26663;59.302;18.082;2023-04-05T08:40:02;2.07;;;1.80;;
17650;SDS011;26663;59.302;18.082;2023-04-05T08:43:10;2.00;;;1.60;;
17650;SDS011;26663;59.302;18.082;2023-04-05T08:46:19;3.77;;;1.73;;
17650;SDS011;26663;59.302;18.082;2023-04-05T08:49:28;1.90;;;1.80;;
17650;SDS011;26663;59.302;18.082;2023-04-05T08:52:33;5.00;;;1.60;;
17650;SDS011;26663;59.302;18.082;2023-04-05T08:55:39;5.33;;;1.60;;
17650;SDS011;26663;59.302;18.082;2023-04-05T08:58:46;3.07;;;1.80;;
17650;SDS011;26663;59.302;18.082;2023-04-05T09:01:54;2.63;;;1.70;;
17650;SDS011;26663;59.302;18.082;2023-04-05T09:05:04;5.47;;;1.90;;
17650;SDS011;26663;59.302;18.082;2023-04-05T09:08:13;3.40;;;1.73;;
17650;SDS011;26663;59.302;18.082;2023-04-05T09:11:18;1.80;;;1.70;;
17650;SDS011;26663;59.302;18.082;2023-04-05T09:14:24;4.10;;;2.20;;
17650;SDS011;26663;59.302;18.082;2023-04-05T09:17:30;1.77;;;1.77;;
17650;SDS011;26663;59.302;18.082;2023-04-05T09:20:37;5.67;;;2.00;;
17650;SDS011;26663;59.302;18.082;2023-04-05T09:23:52;9.33;;;2.30;;
17650;SDS011;26663;59.302;18.082;2023-04-05T09:27:03;1.30;;;1.30;;
17650;SDS011;26663;59.302;18.082;2023-04-05T09:30:19;1.50;;;1.37;;
17650;SDS011;26663;59.302;18.082;2023-04-05T09:33:25;5.00;;;2.13;;
17650;SDS011;26663;59.302;18.082;2023-04-05T09:36:33;6.60;;;1.80;;
17650;SDS011;26663;59.302;18.082;2023-04-05T09:39:39;1.80;;;1.47;;
17650;SDS011;26663;59.302;18.082;2023-04-05T09:42:44;3.33;;;1.80;;
17650;SDS011;26663;59.302;18.082;2023-04-05T09:45:50;1.57;;;1.53;;
17650;SDS011;26663;59.302;18.082;2023-04-05T09:48:55;2.23;;;2.03;;
17650;SDS011;26663;59.302;18.082;2023-04-05T09:52:02;1.70;;;1.60;;
17650;SDS011;26663;59.302;18.082;2023-04-05T09:55:10;3.60;;;1.70;;
17650;SDS011;26663;59.302;18.082;2023-04-05T09:58:17;2.23;;;1.63;;
17650;SDS011;26663;59.302;18.082;2023-04-05T10:01:25;2.30;;;2.10;;
17650;SDS011;26663;59.302;18.082;2023-04-05T10:04:37;3.47;;;2.30;;
17650;SDS011;26663;59.302;18.082;2023-04-05T10:07:44;2.53;;;1.73;;
17650;SDS011;26663;59.302;18.082;2023-04-05T10:10:49;3.53;;;2.40;;
17650;SDS011;26663;59.302;18.082;2023-04-05T10:13:58;4.37;;;1.60;;
17650;SDS011;26663;59.302;18.082;2023-04-05T10:17:11;2.10;;;1.90;;
17650;SDS011;26663;59.302;18.082;2023-04-05T10:20:18;2.80;;;2.03;;
17650;SDS011;26663;59.302;18.082;2023-04-05T10:23:26;2.23;;;2.07;;
17650;SDS011;26663;59.302;18.082;2023-04-05T10:26:35;3.87;;;2.00;;
17650;SDS011;26663;59.302;18.082;2023-04-05T10:29:46;4.57;;;2.07;;
17650;SDS011;26663;59.302;18.082;2023-04-05T10:33:06;2.60;;;2.40;;
17650;SDS011;26663;59.302;18.082;2023-04-05T10:36:18;1.83;;;1.77;;
17650;SDS011;26663;59.302;18.082;2023-04-05T10:39:32;2.60;;;2.50;;
17650;SDS011;26663;59.302;18.082;2023-04-05T10:42:42;4.87;;;2.90;;
17650;SDS011;26663;59.302;18.082;2023-04-05T10:45:48;1.87;;;1.80;;
17650;SDS011;26663;59.302;18.082;2023-04-05T10:48:58;1.87;;;1.87;;
17650;SDS011;26663;59.302;18.082;2023-04-05T10:52:05;1.50;;;1.40;;
17650;SDS011;26663;59.302;18.082;2023-04-05T10:55:12;2.10;;;1.73;;
17650;SDS011;26663;59.302;18.082;2023-04-05T10:58:18;4.60;;;2.00;;
17650;SDS011;26663;59.302;18.082;2023-04-05T11:01:23;2.20;;;2.10;;
17650;SDS011;26663;59.302;18.082;2023-04-05T11:04:29;3.27;;;2.27;;
17650;SDS011;26663;59.302;18.082;2023-04-05T11:07:41;1.70;;;1.60;;
17650;SDS011;26663;59.302;18.082;2023-04-05T11:10:48;1.67;;;1.67;;
17650;SDS011;26663;59.302;18.082;2023-04-05T11:13:56;1.60;;;1.60;;
17650;SDS011;26663;59.302;18.082;2023-04-05T11:17:02;1.87;;;1.77;;
17650;SDS011;26663;59.302;18.082;2023-04-05T11:20:10;3.40;;;2.10;;
17650;SDS011;26663;59.302;18.082;2023-04-05T11:23:15;2.60;;;2.43;;
17650;SDS011;26663;59.302;18.082;2023-04-05T11:26:23;2.03;;;1.80;;
17650;SDS011;26663;59.302;18.082;2023-04-05T11:29:44;1.60;;;1.60;;
17650;SDS011;26663;59.302;18.082;2023-04-05T11:32:51;2.80;;;1.90;;
17650;SDS011;26663;59.302;18.082;2023-04-05T11:35:59;1.60;;;1.50;;
17650;SDS011;26663;59.302;18.082;2023-04-05T11:39:22;2.37;;;1.90;;
17650;SDS011;26663;59.302;18.082;2023-04-05T11:42:29;3.40;;;3.10;;
17650;SDS011;26663;59.302;18.082;2023-04-05T11:45:36;4.30;;;2.50;;
17650;SDS011;26663;59.302;18.082;2023-04-05T11:48:47;2.07;;;1.90;;
17650;SDS011;26663;59.302;18.082;2023-04-05T11:51:53;2.57;;;2.13;;
17650;SDS011;26663;59.302;18.082;2023-04-05T11:54:59;4.00;;;2.10;;
17650;SDS011;26663;59.302;18.082;2023-04-05T11:58:13;2.27;;;2.17;;
17650;SDS011;26663;59.302;18.082;2023-04-05T12:01:19;1.90;;;1.80;;
17650;SDS011;26663;59.302;18.082;2023-04-05T12:04:24;3.43;;;1.80;;
17650;SDS011;26663;59.302;18.082;2023-04-05T12:07:29;1.70;;;1.60;;
17650;SDS011;26663;59.302;18.082;2023-04-05T12:10:39;1.63;;;1.63;;
17650;SDS011;26663;59.302;18.082;2023-04-05T12:13:45;1.90;;;1.90;;
17650;SDS011;26663;59.302;18.082;2023-04-05T12:16:50;1.60;;;1.60;;
17650;SDS011;26663;59.302;18.082;2023-04-05T12:19:55;2.53;;;1.57;;
17650;SDS011;26663;59.302;18.082;2023-04-05T12:23:00;1.70;;;1.63;;
17650;SDS011;26663;59.302;18.082;2023-04-05T12:26:07;2.00;;;1.90;;
17650;SDS011;26663;59.302;18.082;2023-04-05T12:29:14;1.90;;;1.80;;
17650;SDS011;26663;59.302;18.082;2023-04-05T12:32:19;3.37;;;1.90;;
17650;SDS011;26663;59.302;18.082;2023-04-05T12:35:26;1.90;;;1.80;;
17650;SDS011;26663;59.302;18.082;2023-04-05T12:38:35;1.83;;;1.73;;
17650;SDS011;26663;59.302;18.082;2023-04-05T12:41:41;1.90;;;1.80;;
17650;SDS011;26663;59.302;18.082;2023-04-05T12:45:02;1.60;;;1.60;;
17650;SDS011;26663;59.302;18.082;2023-04-05T12:48:11;1.80;;;1.70;;
17650;SDS011;26663;59.302;18.082;2023-04-05T12:51:16;1.73;;;1.73;;
17650;SDS011;26663;59.302;18.082;2023-04-05T12:54:22;1.50;;;1.50;;
17650;SDS011;26663;59.302;18.082;2023-04-05T12:57:28;2.53;;;1.80;;
17650;SDS011;26663;59.302;18.082;2023-04-05T13:00:35;1.77;;;1.77;;
17650;SDS011;26663;59.302;18.082;2023-04-05T13:03:42;2.47;;;1.80;;
17650;SDS011;26663;59.302;18.082;2023-04-05T13:06:51;1.77;;;1.67;;
17650;SDS011;26663;59.302;18.082;2023-04-05T13:09:57;1.87;;;1.50;;
17650;SDS011;26663;59.302;18.082;2023-04-05T13:13:02;8.83;;;1.67;;
17650;SDS011;26663;59.302;18.082;2023-04-05T13:16:13;5.20;;;1.60;;
17650;SDS011;26663;59.302;18.082;2023-04-05T13:19:19;1.57;;;1.50;;
17650;SDS011;26663;59.302;18.082;2023-04-05T13:22:24;2.00;;;1.90;;
17650;SDS011;26663;59.302;18.082;2023-04-05T13:25:29;1.70;;;1.70;;
17650;SDS011;26663;59.302;18.082;2023-04-05T13:28:34;2.00;;;1.90;;
17650;SDS011;26663;59.302;18.082;2023-04-05T13:31:41;1.77;;;1.67;;
17650;SDS011;26663;59.302;18.082;2023-04-05T13:34:46;1.80;;;1.70;;
17650;SDS011;26663;59.302;18.082;2023-04-05T13:37:51;4.00;;;3.60;;
17650;SDS011;26663;59.302;18.082;2023-04-05T13:40:56;23.33;;;9.20;;
17650;SDS011;26663;59.302;18.082;2023-04-05T13:44:01;3.67;;;3.47;;
17650;SDS011;26663;59.302;18.082;2023-04-05T13:47:09;2.10;;;2.10;;
17650;SDS011;26663;59.302;18.082;2023-04-05T13:50:16;2.50;;;2.30;;
17650;SDS011;26663;59.302;18.082;2023-04-05T13:53:21;3.83;;;2.43;;
17650;SDS011;26663;59.302;18.082;2023-04-05T13:56:30;1.90;;;1.90;;
17650;SDS011;26663;59.302;18.082;2023-04-05T13:59:35;2.33;;;2.13;;
17650;SDS011;26663;59.302;18.082;2023-04-05T14:02:42;2.60;;;2.47;;
17650;SDS011;26663;59.302;18.082;2023-04-05T14:05:47;2.13;;;2.07;;
17650;SDS011;26663;59.302;18.082;2023-04-05T14:08:56;2.23;;;2.13;;
17650;SDS011;26663;59.302;18.082;2023-04-05T14:12:01;1.90;;;1.90;;
17650;SDS011;26663;59.302;18.082;2023-04-05T14:15:07;1.73;;;1.70;;
17650;SDS011;26663;59.302;18.082;2023-04-05T14:18:15;1.97;;;1.90;;
17650;SDS011;26663;59.302;18.082;2023-04-05T14:21:20;1.97;;;1.87;;
17650;SDS011;26663;59.302;18.082;2023-04-05T14:24:26;2.97;;;2.30;;
17650;SDS011;26663;59.302;18.082;2023-04-05T14:27:32;2.17;;;2.07;;
17650;SDS011;26663;59.302;18.082;2023-04-05T14:30:42;2.10;;;2.00;;
17650;SDS011;26663;59.302;18.082;2023-04-05T14:36:54;4.87;;;4.47;;
17650;SDS011;26663;59.302;18.082;2023-04-05T14:40:00;3.40;;;2.43;;
17650;SDS011;26663;59.302;18.082;2023-04-05T14:43:05;2.27;;;2.27;;
17650;SDS011;26663;59.302;18.082;2023-04-05T14:46:11;2.13;;;2.03;;
17650;SDS011;26663;59.302;18.082;2023-04-05T14:49:16;2.20;;;2.10;;
17650;SDS011;26663;59.302;18.082;2023-04-05T14:52:22;2.13;;;1.97;;
17650;SDS011;26663;59.302;18.082;2023-04-05T14:55:28;4.97;;;4.53;;
17650;SDS011;26663;59.302;18.082;2023-04-05T14:58:33;3.33;;;2.30;;
17650;SDS011;26663;59.302;18.082;2023-04-05T15:01:38;2.30;;;2.20;;
17650;SDS011;26663;59.302;18.082;2023-04-05T15:04:48;2.63;;;2.00;;
17650;SDS011;26663;59.302;18.082;2023-04-05T15:07:55;2.73;;;2.63;;
17650;SDS011;26663;59.302;18.082;2023-04-05T15:11:00;2.50;;;2.40;;
17650;SDS011;26663;59.302;18.082;2023-04-05T15:14:05;2.10;;;2.00;;
17650;SDS011;26663;59.302;18.082;2023-04-05T15:17:19;2.90;;;2.40;;
17650;SDS011;26663;59.302;18.082;2023-04-05T15:20:25;2.03;;;2.00;;
17650;SDS011;26663;59.302;18.082;2023-04-05T15:23:32;2.10;;;2.00;;
17650;SDS011;26663;59.302;18.082;2023-04-05T15:26:37;2.30;;;2.20;;
17650;SDS011;26663;59.302;18.082;2023-04-05T15:29:42;5.17;;;2.13;;
17650;SDS011;26663;59.302;18.082;2023-04-05T15:32:47;4.80;;;2.77;;
17650;SDS011;26663;59.302;18.082;2023-04-05T15:35:52;3.93;;;2.53;;
17650;SDS011;26663;59.302;18.082;2023-04-05T15:38:59;2.07;;;1.97;;
17650;SDS011;26663;59.302;18.082;2023-04-05T15:42:07;2.63;;;2.47;;
17650;SDS011;26663;59.302;18.082;2023-04-05T15:45:12;2.70;;;2.47;;
17650;SDS011;26663;59.302;18.082;2023-04-05T15:48:17;2.27;;;2.17;;
17650;SDS011;26663;59.302;18.082;2023-04-05T15:51:23;2.57;;;2.37;;
17650;SDS011;26663;59.302;18.082;2023-04-05T15:54:29;2.90;;;2.80;;
17650;SDS011;26663;59.302;18.082;2023-04-05T15:57:35;2.50;;;2.40;;
17650;SDS011;26663;59.302;18.082;2023-04-05T16:00:40;3.57;;;2.93;;
17650;SDS011;26663;59.302;18.082;2023-04-05T16:03:45;4.80;;;4.50;;
17650;SDS011;26663;59.302;18.082;2023-04-05T16:06:51;2.10;;;2.10;;
17650;SDS011;26663;59.302;18.082;2023-04-05T16:09:57;4.27;;;2.87;;
17650;SDS011;26663;59.302;18.082;2023-04-05T16:13:03;2.67;;;2.57;;
17650;SDS011;26663;59.302;18.082;2023-04-05T16:16:09;2.90;;;2.70;;
17650;SDS011;26663;59.302;18.082;2023-04-05T16:19:29;4.63;;;3.30;;
17650;SDS011;26663;59.302;18.082;2023-04-05T16:22:34;3.13;;;2.87;;
17650;SDS011;26663;59.302;18.082;2023-04-05T16:25:41;3.40;;;3.30;;
17650;SDS011;26663;59.302;18.082;2023-04-05T16:28:46;3.27;;;3.07;;
17650;SDS011;26663;59.302;18.082;2023-04-05T16:31:51;3.00;;;2.80;;
17650;SDS011;26663;59.302;18.082;2023-04-05T16:34:57;3.33;;;3.03;;
17650;SDS011;26663;59.302;18.082;2023-04-05T16:38:02;3.03;;;2.90;;
17650;SDS011;26663;59.302;18.082;2023-04-05T16:41:09;5.60;;;2.80;;
17650;SDS011;26663;59.302;18.082;2023-04-05T16:44:14;3.70;;;2.67;;
17650;SDS011;26663;59.302;18.082;2023-04-05T16:47:19;3.60;;;3.30;;
17650;SDS011;26663;59.302;18.082;2023-04-05T16:50:24;3.43;;;3.03;;
17650;SDS011;26663;59.302;18.082;2023-04-05T16:53:30;3.40;;;3.20;;
17650;SDS011;26663;59.302;18.082;2023-04-05T16:56:36;11.47;;;6.67;;
17650;SDS011;26663;59.302;18.082;2023-04-05T16:59:43;7.93;;;5.10;;
17650;SDS011;26663;59.302;18.082;2023-04-05T17:02:48;4.37;;;4.07;;
17650;SDS011;26663;59.302;18.082;2023-04-05T17:05:54;6.10;;;5.60;;
17650;SDS011;26663;59.302;18.082;2023-04-05T17:09:00;2.97;;;2.87;;
17650;SDS011;26663;59.302;18.082;2023-04-05T17:12:08;3.00;;;2.63;;
17650;SDS011;26663;59.302;18.082;2023-04-05T17:15:13;3.30;;;2.60;;
17650;SDS011;26663;59.302;18.082;2023-04-05T17:18:19;2.93;;;2.83;;
17650;SDS011;26663;59.302;18.082;2023-04-05T17:21:26;3.80;;;3.57;;
17650;SDS011;26663;59.302;18.082;2023-04-05T17:24:32;2.87;;;2.67;;
17650;SDS011;26663;59.302;18.082;2023-04-05T17:27:39;2.90;;;2.73;;
17650;SDS011;26663;59.302;18.082;2023-04-05T17:30:45;5.17;;;2.97;;
17650;SDS011;26663;59.302;18.082;2023-04-05T17:33:50;3.77;;;3.43;;
17650;SDS011;26663;59.302;18.082;2023-04-05T17:36:55;2.87;;;2.63;;
17650;SDS011;26663;59.302;18.082;2023-04-05T17:40:00;3.33;;;3.13;;
17650;SDS011;26663;59.302;18.082;2023-04-05T17:43:08;3.53;;;2.70;;
17650;SDS011;26663;59.302;18.082;2023-04-05T17:46:14;2.90;;;2.70;;
17650;SDS011;26663;59.302;18.082;2023-04-05T17:49:35;2.57;;;2.43;;
17650;SDS011;26663;59.302;18.082;2023-04-05T17:52:40;2.80;;;2.67;;
17650;SDS011;26663;59.302;18.082;2023-04-05T17:55:47;3.10;;;2.90;;
17650;SDS011;26663;59.302;18.082;2023-04-05T17:58:53;3.80;;;3.60;;
17650;SDS011;26663;59.302;18.082;2023-04-05T18:01:59;3.57;;;3.30;;
17650;SDS011;26663;59.302;18.082;2023-04-05T18:05:05;3.33;;;3.10;;
17650;SDS011;26663;59.302;18.082;2023-04-05T18:08:13;3.50;;;3.30;;
17650;SDS011;26663;59.302;18.082;2023-04-05T18:11:21;3.20;;;3.10;;
17650;SDS011;26663;59.302;18.082;2023-04-05T18:14:28;3.70;;;3.40;;
17650;SDS011;26663;59.302;18.082;2023-04-05T18:17:34;3.40;;;3.30;;
17650;SDS011;26663;59.302;18.082;2023-04-05T18:20:39;4.27;;;3.27;;
17650;SDS011;26663;59.302;18.082;2023-04-05T18:23:45;3.70;;;3.50;;
17650;SDS011;26663;59.302;18.082;2023-04-05T18:26:50;4.20;;;3.90;;
17650;SDS011;26663;59.302;18.082;2023-04-05T18:29:57;3.13;;;2.93;;
17650;SDS011;26663;59.302;18.082;2023-04-05T18:33:02;3.93;;;3.60;;
17650;SDS011;26663;59.302;18.082;2023-04-05T18:36:09;3.23;;;2.93;;
17650;SDS011;26663;59.302;18.082;2023-04-05T18:39:16;3.30;;;3.20;;
17650;SDS011;26663;59.302;18.082;2023-04-05T18:42:23;3.40;;;3.30;;